Time;durP1;ratioP1;P1;durP2;ratioP2;P2;SDS_P1;SDS_P2;PMS_P1;PMS_P2;Temp;Humidity;BMP_temperature;BMP_pressure;BME280_temperature;BME280_humidity;BME280_pressure;Samples;Min_cycle;Max_cycle;Signal;HPM_P1;HPM_P2
2021/03/22 00:00:59;;;;;;;4.17;1.70;;;3.50;99.90;;;;;;5017550;28;20240;-82
2021/03/22 00:03:25;;;;;;;1.40;1.10;;;3.50;99.90;;;;;;5018872;28;20176;-82
2021/03/22 00:05:53;;;;;;;3.30;1.73;;;3.40;99.90;;;;;;5012627;28;20179;-81
2021/03/22 00:08:21;;;;;;;1.83;1.50;;;3.30;99.90;;;;;;5002460;28;20688;-81
2021/03/22 00:10:49;;;;;;;2.95;1.75;;;3.10;99.90;;;;;;5001277;28;20212;-81
2021/03/22 00:13:19;;;;;;;2.67;1.48;;;3.10;99.90;;;;;;5001471;28;20254;-82
2021/03/22 00:15:46;;;;;;;3.00;1.85;;;3.00;99.90;;;;;;5002398;28;20208;-80
2021/03/22 00:18:16;;;;;;;1.25;1.00;;;3.00;99.90;;;;;;5001366;28;20180;-82
2021/03/22 00:20:42;;;;;;;2.75;1.23;;;3.10;99.90;;;;;;5001865;28;20184;-81
2021/03/22 00:23:08;;;;;;;2.33;1.60;;;3.20;99.90;;;;;;5001412;28;20164;-81
2021/03/22 00:25:34;;;;;;;3.05;1.90;;;3.20;99.90;;;;;;4985432;28;20479;-82
2021/03/22 00:28:04;;;;;;;2.95;2.20;;;3.10;99.90;;;;;;5001714;28;20203;-81
2021/03/22 00:30:37;;;;;;;2.83;1.90;;;3.00;99.90;;;;;;5002688;28;20184;-81
2021/03/22 00:33:04;;;;;;;3.05;1.90;;;2.90;99.90;;;;;;5008706;28;20164;-82
2021/03/22 00:35:30;;;;;;;2.72;1.67;;;2.90;99.90;;;;;;5009112;28;20180;-81
2021/03/22 00:37:56;;;;;;;4.07;1.97;;;2.90;99.90;;;;;;5003511;28;20260;-81
2021/03/22 00:40:25;;;;;;;4.35;2.95;;;2.80;99.90;;;;;;5001815;28;20462;-81
2021/03/22 00:42:51;;;;;;;4.93;1.83;;;2.80;99.90;;;;;;5000664;28;20173;-80
2021/03/22 00:45:19;;;;;;;7.23;1.83;;;2.70;99.90;;;;;;5000784;28;20248;-83
2021/03/22 00:47:47;;;;;;;4.82;2.22;;;2.70;99.90;;;;;;5002286;28;20430;-83
2021/03/22 00:50:21;;;;;;;3.42;2.28;;;2.70;99.90;;;;;;5001857;28;20231;-80
2021/03/22 00:52:49;;;;;;;3.55;1.50;;;2.60;99.90;;;;;;5001391;28;20163;-81
2021/03/22 00:55:16;;;;;;;2.42;1.75;;;2.60;99.90;;;;;;4986362;28;20195;-81
2021/03/22 00:57:41;;;;;;;3.45;1.52;;;2.60;99.90;;;;;;5000664;28;20270;-81
2021/03/22 01:00:09;;;;;;;3.83;1.60;;;2.60;99.90;;;;;;5007876;28;20200;-82
2021/03/22 01:02:35;;;;;;;3.38;1.70;;;2.60;99.90;;;;;;5003764;28;20191;-81
2021/03/22 01:05:02;;;;;;;1.60;1.47;;;2.60;99.90;;;;;;5003947;28;20219;-81
2021/03/22 01:07:28;;;;;;;2.53;1.60;;;2.60;99.90;;;;;;5002663;28;20195;-80
2021/03/22 01:09:53;;;;;;;1.23;1.00;;;2.60;99.90;;;;;;4987142;28;20192;-81
2021/03/22 01:12:19;;;;;;;3.17;1.30;;;2.50;99.90;;;;;;5003176;28;20191;-81
2021/03/22 01:14:45;;;;;;;2.30;1.97;;;2.50;99.90;;;;;;5021007;28;20218;-82
2021/03/22 01:17:11;;;;;;;1.53;1.43;;;2.50;99.90;;;;;;5003278;28;20247;-82
2021/03/22 01:19:36;;;;;;;5.70;2.07;;;2.40;99.90;;;;;;4987326;28;20180;-82
2021/03/22 01:22:03;;;;;;;2.30;1.83;;;2.40;99.90;;;;;;5002081;28;20175;-81
2021/03/22 01:24:32;;;;;;;2.78;1.70;;;2.40;99.90;;;;;;5020314;28;20442;-82
2021/03/22 01:27:02;;;;;;;2.78;2.55;;;2.40;99.90;;;;;;4988237;28;20180;-81
2021/03/22 01:29:34;;;;;;;1.98;1.42;;;2.40;99.90;;;;;;5003587;28;20172;-81
2021/03/22 01:32:01;;;;;;;2.35;1.95;;;2.40;99.90;;;;;;5008508;28;20296;-81
2021/03/22 01:34:29;;;;;;;2.55;1.73;;;2.40;99.90;;;;;;5026050;28;20167;-83
2021/03/22 01:36:56;;;;;;;4.18;3.80;;;2.30;99.90;;;;;;5031990;28;20167;-79
2021/03/22 01:39:28;;;;;;;3.33;1.88;;;2.30;99.90;;;;;;5023288;28;20179;-79
2021/03/22 01:42:30;;;;;;;3.75;2.13;;;2.30;99.90;;;;;;5040966;28;20179;-81
2021/03/22 01:45:06;;;;;;;5.88;2.00;;;2.30;99.90;;;;;;5040944;28;20222;-79
2021/03/22 01:47:33;;;;;;;3.17;2.67;;;2.20;99.90;;;;;;5010700;28;20243;-80
2021/03/22 01:50:19;;;;;;;4.68;3.17;;;2.20;99.90;;;;;;4994146;28;20196;-83
2021/03/22 01:52:48;;;;;;;5.05;2.10;;;2.30;99.90;;;;;;5012227;28;20191;-80
2021/03/22 01:55:15;;;;;;;3.58;2.47;;;2.20;99.90;;;;;;5030118;28;20172;-81
2021/03/22 01:57:46;;;;;;;2.53;1.70;;;2.20;99.90;;;;;;5012409;28;20168;-81
2021/03/22 02:00:34;;;;;;;5.10;2.67;;;2.20;99.90;;;;;;5027607;28;20201;-81
2021/03/22 02:03:10;;;;;;;5.63;2.60;;;2.20;99.90;;;;;;5009923;28;20192;-81
2021/03/22 02:05:38;;;;;;;3.35;2.22;;;2.20;99.90;;;;;;5008093;28;20199;-80
2021/03/22 02:08:28;;;;;;;6.10;2.70;;;2.20;99.90;;;;;;5009298;28;20168;-81
2021/03/22 02:10:55;;;;;;;5.43;2.42;;;2.20;99.90;;;;;;5008596;28;20264;-80
2021/03/22 02:13:24;;;;;;;3.42;1.95;;;2.20;99.90;;;;;;5024793;28;20175;-81
2021/03/22 02:16:02;;;;;;;4.70;2.10;;;2.20;99.90;;;;;;4990879;28;20274;-81
2021/03/22 02:18:46;;;;;;;3.17;1.88;;;2.30;99.90;;;;;;5009129;28;20247;-81
2021/03/22 02:21:44;;;;;;;7.40;3.00;;;2.30;99.90;;;;;;5014414;28;20192;-80
2021/03/22 02:24:29;;;;;;;5.78;2.22;;;2.30;99.90;;;;;;5021332;28;20246;-80
2021/03/22 02:27:13;;;;;;;2.55;1.75;;;2.30;99.90;;;;;;5018316;28;20196;-80
2021/03/22 02:30:18;;;;;;;3.95;2.30;;;2.30;99.90;;;;;;5006684;28;20195;-81
2021/03/22 02:33:04;;;;;;;4.35;1.63;;;2.30;99.90;;;;;;5023768;28;20183;-81
2021/03/22 02:35:41;;;;;;;5.28;2.60;;;2.30;99.90;;;;;;5007512;28;20168;-81
2021/03/22 02:38:17;;;;;;;3.72;2.15;;;2.20;99.90;;;;;;5007238;28;20230;-81
2021/03/22 02:40:46;;;;;;;3.33;2.33;;;2.20;99.90;;;;;;5030540;28;20194;-79
2021/03/22 02:43:11;;;;;;;5.75;2.35;;;2.10;99.90;;;;;;5013635;28;20255;-81
2021/03/22 02:45:40;;;;;;;5.43;2.37;;;2.10;99.90;;;;;;5006458;28;20219;-81
2021/03/22 02:48:12;;;;;;;5.45;2.33;;;2.00;99.90;;;;;;5006621;28;20244;-81
2021/03/22 02:50:41;;;;;;;7.38;2.90;;;2.00;99.90;;;;;;5007048;28;20192;-81
2021/03/22 02:53:24;;;;;;;2.28;2.10;;;2.00;99.90;;;;;;5024753;28;20152;-82
2021/03/22 02:56:11;;;;;;;3.25;1.70;;;2.00;99.90;;;;;;5013559;28;20164;-80
2021/03/22 02:59:09;;;;;;;4.60;2.10;;;2.00;99.90;;;;;;5038429;28;20152;-79
2021/03/22 03:01:47;;;;;;;8.05;4.28;;;1.90;99.90;;;;;;4993458;28;20257;-81
2021/03/22 03:04:15;;;;;;;5.47;2.95;;;1.90;99.90;;;;;;5004804;28;20207;-80
2021/03/22 03:06:47;;;;;;;3.15;1.63;;;1.90;99.90;;;;;;5010531;28;20187;-81
2021/03/22 03:09:14;;;;;;;10.90;4.15;;;1.80;99.90;;;;;;5038282;28;20136;-81
2021/03/22 03:11:40;;;;;;;6.25;3.33;;;1.80;99.90;;;;;;5021504;28;20188;-82
2021/03/22 03:14:06;;;;;;;7.70;3.00;;;1.80;99.90;;;;;;5021827;28;20187;-81
2021/03/22 03:16:32;;;;;;;5.07;3.00;;;1.80;99.90;;;;;;5025987;28;20653;-81
2021/03/22 03:18:58;;;;;;;8.05;2.53;;;1.80;99.90;;;;;;4999940;28;20418;-79
2021/03/22 03:21:24;;;;;;;5.67;3.00;;;1.70;99.90;;;;;;5039021;28;20243;-81
2021/03/22 03:23:49;;;;;;;4.13;2.47;;;1.60;99.90;;;;;;5038801;28;20482;-80
2021/03/22 03:26:18;;;;;;;5.50;2.43;;;1.60;99.90;;;;;;5034988;28;20176;-81
2021/03/22 03:28:44;;;;;;;11.80;3.40;;;1.60;99.90;;;;;;5028506;28;20167;-81
2021/03/22 03:31:13;;;;;;;3.23;2.03;;;1.60;99.90;;;;;;4999374;28;20200;-80
2021/03/22 03:33:38;;;;;;;7.88;4.60;;;1.60;99.90;;;;;;5032320;28;20615;-81
2021/03/22 03:36:04;;;;;;;10.83;3.77;;;1.60;99.90;;;;;;5012950;28;20175;-81
2021/03/22 03:38:32;;;;;;;8.65;2.72;;;1.60;99.90;;;;;;5032123;28;20160;-81
2021/03/22 03:40:58;;;;;;;6.50;2.77;;;1.60;99.90;;;;;;5057788;23;20263;-83
2021/03/22 03:43:23;;;;;;;4.20;2.53;;;1.50;99.90;;;;;;4988005;28;20186;-83
2021/03/22 03:45:51;;;;;;;3.67;3.30;;;1.50;99.90;;;;;;5004570;28;20196;-83
2021/03/22 03:48:25;;;;;;;5.47;2.22;;;1.50;99.90;;;;;;5022084;28;20172;-83
2021/03/22 03:50:56;;;;;;;7.60;2.72;;;1.50;99.90;;;;;;5004995;28;20192;-83
2021/03/22 03:53:23;;;;;;;7.80;2.28;;;1.50;99.90;;;;;;5022834;28;20198;-83
2021/03/22 03:55:49;;;;;;;7.70;3.17;;;1.40;99.90;;;;;;5004248;28;20183;-85
2021/03/22 03:58:15;;;;;;;4.07;2.05;;;1.40;99.90;;;;;;5004477;28;20215;-84
2021/03/22 04:00:43;;;;;;;7.90;3.25;;;1.40;99.90;;;;;;5004318;28;20566;-84
2021/03/22 04:03:24;;;;;;;4.85;3.20;;;1.40;99.90;;;;;;5003831;28;20184;-84
2021/03/22 04:06:03;;;;;;;9.57;2.83;;;1.40;99.90;;;;;;4986818;28;20672;-84
2021/03/22 04:08:31;;;;;;;5.82;3.47;;;1.30;99.90;;;;;;5002881;28;20233;-84
2021/03/22 04:10:59;;;;;;;8.15;3.42;;;1.30;99.90;;;;;;5019805;28;20183;-84
2021/03/22 04:13:24;;;;;;;6.88;3.03;;;1.30;99.90;;;;;;4988095;28;20666;-84
2021/03/22 04:15:50;;;;;;;4.28;2.80;;;1.30;99.90;;;;;;4989573;28;20180;-84
2021/03/22 04:18:16;;;;;;;8.30;3.67;;;1.30;99.90;;;;;;4968962;28;20172;-84
2021/03/22 04:20:42;;;;;;;11.73;4.83;;;1.30;99.90;;;;;;4983898;28;20470;-83
2021/03/22 04:23:07;;;;;;;12.00;4.20;;;1.30;99.90;;;;;;5002105;28;20153;-84
2021/03/22 04:25:33;;;;;;;10.40;2.70;;;1.30;99.90;;;;;;5003055;28;20560;-84
2021/03/22 04:28:00;;;;;;;8.75;4.60;;;1.30;99.90;;;;;;5004445;28;20219;-84
2021/03/22 04:30:26;;;;;;;4.75;3.17;;;1.30;99.90;;;;;;5005471;28;20194;-84
2021/03/22 04:32:52;;;;;;;7.33;3.27;;;1.30;99.90;;;;;;5007759;28;20161;-83
2021/03/22 04:35:20;;;;;;;9.13;3.07;;;1.30;99.90;;;;;;5006461;28;20423;-84
2021/03/22 04:37:46;;;;;;;5.03;3.25;;;1.20;99.90;;;;;;4988653;28;20427;-84
2021/03/22 04:40:12;;;;;;;6.50;3.03;;;1.20;99.90;;;;;;5002496;28;20548;-84
2021/03/22 04:42:37;;;;;;;10.63;4.43;;;1.20;99.90;;;;;;5003079;28;20184;-84
2021/03/22 04:45:05;;;;;;;7.93;3.40;;;1.20;99.90;;;;;;4986283;28;20200;-84
2021/03/22 04:47:31;;;;;;;11.52;3.60;;;1.10;99.90;;;;;;4986054;28;20268;-84
2021/03/22 04:49:56;;;;;;;6.93;2.53;;;1.10;99.90;;;;;;5003272;28;20237;-84
2021/03/22 04:52:22;;;;;;;15.20;5.30;;;1.10;99.90;;;;;;4986411;28;20185;-84
2021/03/22 04:54:47;;;;;;;12.57;4.80;;;1.10;99.90;;;;;;5004924;28;20283;-85
2021/03/22 04:57:26;;;;;;;9.97;4.10;;;1.10;99.90;;;;;;5004300;28;20247;-84
2021/03/22 04:59:52;;;;;;;12.50;5.60;;;1.10;99.90;;;;;;4985055;28;20184;-82
2021/03/22 05:02:18;;;;;;;5.97;4.25;;;1.20;99.90;;;;;;4987963;28;20299;-83
2021/03/22 05:04:43;;;;;;;7.30;3.90;;;1.20;99.90;;;;;;5005972;28;20199;-84
2021/03/22 05:07:09;;;;;;;8.30;3.77;;;1.10;99.90;;;;;;4988288;28;20168;-83
2021/03/22 05:09:35;;;;;;;13.07;4.97;;;1.10;99.90;;;;;;4990801;28;20180;-84
2021/03/22 05:12:06;;;;;;;12.07;5.20;;;1.10;99.90;;;;;;4990418;28;20192;-84
2021/03/22 05:14:32;;;;;;;12.27;5.00;;;1.10;99.90;;;;;;5006220;28;20157;-84
2021/03/22 05:17:02;;;;;;;10.63;4.40;;;1.10;99.90;;;;;;5006569;28;20552;-84
2021/03/22 05:19:28;;;;;;;14.55;4.03;;;1.20;99.90;;;;;;5006352;28;20435;-84
2021/03/22 05:21:58;;;;;;;14.98;5.43;;;1.20;99.90;;;;;;4988740;28;20196;-84
2021/03/22 05:24:25;;;;;;;10.35;3.63;;;1.20;99.90;;;;;;4990222;28;20196;-84
2021/03/22 05:26:52;;;;;;;12.48;4.68;;;1.30;99.90;;;;;;4989683;28;20173;-84
2021/03/22 05:29:19;;;;;;;9.88;4.47;;;1.40;99.90;;;;;;5007883;28;20169;-84
2021/03/22 05:31:49;;;;;;;9.40;4.95;;;1.90;99.90;;;;;;5007209;28;20185;-84
2021/03/22 05:34:14;;;;;;;11.55;4.75;;;2.60;99.90;;;;;;4989770;28;20173;-83
2021/03/22 05:36:40;;;;;;;11.40;4.17;;;3.10;99.90;;;;;;4989370;28;20188;-84
2021/03/22 05:39:06;;;;;;;10.90;5.13;;;3.50;99.90;;;;;;4989605;28;20184;-84
2021/03/22 05:41:56;;;;;;;12.47;5.70;;;4.30;99.90;;;;;;5010415;28;20310;-86
2021/03/22 05:44:51;;;;;;;10.48;4.70;;;4.60;99.90;;;;;;4975854;28;20466;-85
2021/03/22 05:47:22;;;;;;;17.77;5.32;;;4.10;99.90;;;;;;4991358;28;20168;-85
2021/03/22 05:50:06;;;;;;;18.15;5.28;;;4.10;99.90;;;;;;5008943;28;20531;-85
2021/03/22 05:52:38;;;;;;;9.23;5.20;;;4.10;99.90;;;;;;5008425;28;20172;-85
2021/03/22 05:55:31;;;;;;;13.88;5.25;;;4.70;99.90;;;;;;4991570;28;20252;-85
2021/03/22 05:58:36;;;;;;;12.05;4.82;;;4.50;99.90;;;;;;4986375;28;20195;-84
2021/03/22 06:01:28;;;;;;;9.30;4.45;;;4.40;99.90;;;;;;4966709;29;20193;-84
2021/03/22 06:04:00;;;;;;;7.40;4.20;;;4.30;99.90;;;;;;5009291;28;20219;-84
2021/03/22 06:06:42;;;;;;;18.10;6.03;;;4.50;99.90;;;;;;4991861;28;20184;-84
2021/03/22 06:09:47;;;;;;;10.45;4.90;;;4.80;99.90;;;;;;5009920;28;20165;-83
2021/03/22 06:12:28;;;;;;;12.65;4.80;;;5.10;99.90;;;;;;4974851;28;20247;-84
2021/03/22 06:15:20;;;;;;;10.23;4.68;;;5.00;99.90;;;;;;4989163;28;20207;-84
2021/03/22 06:17:49;;;;;;;18.52;4.93;;;4.90;99.90;;;;;;4991140;28;20239;-85
2021/03/22 06:20:37;;;;;;;10.13;5.85;;;5.10;99.90;;;;;;4990009;28;20189;-86
2021/03/22 06:23:28;;;;;;;11.15;5.43;;;5.20;99.90;;;;;;4990662;28;20161;-85
2021/03/22 06:25:54;;;;;;;9.70;5.85;;;5.70;99.90;;;;;;4972851;28;20273;-84
2021/03/22 06:28:28;;;;;;;9.50;5.63;;;5.90;99.90;;;;;;4989823;28;20164;-85
2021/03/22 06:31:01;;;;;;;13.63;5.15;;;6.30;99.90;;;;;;4988109;28;20196;-84
2021/03/22 06:33:38;;;;;;;6.30;3.85;;;6.70;99.90;;;;;;5006832;28;20161;-85
2021/03/22 06:36:06;;;;;;;7.05;4.35;;;7.30;99.90;;;;;;5005237;28;20224;-85
2021/03/22 06:38:35;;;;;;;9.10;4.50;;;7.10;99.90;;;;;;4988718;28;20176;-84
2021/03/22 06:41:27;;;;;;;12.27;5.03;;;6.20;99.90;;;;;;5005776;28;20211;-85
2021/03/22 06:44:02;;;;;;;7.63;4.30;;;5.80;99.90;;;;;;5000679;28;20246;-84
2021/03/22 06:46:32;;;;;;;17.55;6.65;;;5.30;99.90;;;;;;5007554;28;20566;-85
2021/03/22 06:49:07;;;;;;;13.95;6.00;;;4.30;99.90;;;;;;4990540;28;20725;-85
2021/03/22 06:51:33;;;;;;;18.77;5.35;;;4.10;99.90;;;;;;4973497;28;20196;-85
2021/03/22 06:54:00;;;;;;;11.30;4.53;;;3.90;99.90;;;;;;4989355;28;20193;-86
2021/03/22 06:56:29;;;;;;;11.13;5.97;;;3.80;99.90;;;;;;5006947;28;20176;-85
2021/03/22 06:59:17;;;;;;;7.50;4.65;;;3.80;99.90;;;;;;4974045;28;20180;-86
2021/03/22 07:17:55;;;;;;;;;;;;;;;;;;;;;
2021/03/22 07:20:54;;;;;;;11.15;5.57;;;4.00;99.90;;;;;;4815776;29;20260;-86
2021/03/22 07:24:15;;;;;;;12.30;5.22;;;4.20;99.90;;;;;;4831040;29;20205;-87
2021/03/22 07:27:36;;;;;;;13.60;5.38;;;4.40;99.90;;;;;;4859977;29;20197;-86
2021/03/22 07:30:38;;;;;;;21.35;5.38;;;4.40;99.90;;;;;;4845239;29;20187;-87
2021/03/22 07:33:51;;;;;;;15.25;5.13;;;4.20;99.90;;;;;;4937727;29;20206;-86
2021/03/22 07:36:40;;;;;;;12.07;5.20;;;4.50;99.90;;;;;;4927072;29;20238;-85
2021/03/22 07:39:38;;;;;;;7.65;5.53;;;4.30;99.90;;;;;;4901455;29;20229;-87
2021/03/22 07:42:18;;;;;;;15.85;6.10;;;4.50;99.90;;;;;;4896918;29;20242;-86
2021/03/22 07:45:06;;;;;;;11.75;5.50;;;4.90;99.90;;;;;;4928829;29;20191;-86
2021/03/22 07:48:07;;;;;;;5.93;4.57;;;5.30;99.90;;;;;;4912633;29;20210;-86
2021/03/22 07:51:05;;;;;;;9.65;4.55;;;5.80;99.90;;;;;;4908026;29;20239;-85
2021/03/22 08:02:39;;;;;;;;;;;;;;;;;;;;;
2021/03/22 08:13:03;;;;;;;;;;;;;;;;;;;;;
2021/03/22 08:16:35;;;;;;;8.15;3.90;;;5.30;99.90;;;;;;4839007;29;20194;-84
2021/03/22 08:20:22;;;;;;;5.93;3.25;;;5.50;99.90;;;;;;4825434;29;20174;-85
2021/03/22 08:23:02;;;;;;;11.90;5.03;;;5.50;99.90;;;;;;4829673;29;20218;-86
2021/03/22 08:26:06;;;;;;;7.20;3.58;;;5.40;99.90;;;;;;4833693;29;20290;-86
2021/03/22 08:28:59;;;;;;;10.50;4.38;;;5.30;99.90;;;;;;4809547;29;20187;-86
2021/03/22 08:36:05;;;;;;;21.58;5.55;;;6.00;99.90;;;;;;4865083;29;20619;-86
2021/03/22 08:39:56;;;;;;;;;;;;;;;;;;;;;
2021/03/22 08:43:09;;;;;;;;;;;;;;;;;;;;;
2021/03/22 08:47:23;;;;;;;;;;;;;;;;;;;;;
2021/03/22 08:51:00;;;;;;;6.88;3.50;;;6.40;99.90;;;;;;4929688;29;20482;-85
2021/03/22 08:54:05;;;;;;;;;;;;;;;;;;;;;
2021/03/22 08:57:40;;;;;;;;;;;;;;;;;;;;;
2021/03/22 09:00:58;;;;;;;;;;;;;;;;;;;;;
2021/03/22 09:04:04;;;;;;;;;;;;;;;;;;;;;
2021/03/22 09:07:49;;;;;;;;;;;;;;;;;;;;;
2021/03/22 09:14:21;;;;;;;;;;;;;;;;;;;;;
2021/03/22 09:16:57;;;;;;;5.72;2.90;;;6.80;99.90;;;;;;4997236;28;20203;-85
2021/03/22 09:19:44;;;;;;;10.45;4.25;;;6.90;99.90;;;;;;5039322;28;20192;-87
2021/03/22 09:22:10;;;;;;;13.43;5.00;;;6.90;99.90;;;;;;5022370;28;20208;-84
2021/03/22 09:24:39;;;;;;;5.70;3.50;;;7.00;99.90;;;;;;5021433;28;20470;-84
2021/03/22 09:27:20;;;;;;;5.43;3.67;;;6.80;99.90;;;;;;5021312;28;20493;-85
2021/03/22 09:29:52;;;;;;;13.57;4.23;;;6.80;99.90;;;;;;5020530;28;20427;-84
2021/03/22 09:32:28;;;;;;;16.70;4.07;;;6.70;99.90;;;;;;5014447;28;20422;-85
2021/03/22 09:34:58;;;;;;;4.80;3.53;;;7.00;99.90;;;;;;5012890;28;20453;-84
2021/03/22 09:37:59;;;;;;;11.30;3.50;;;7.00;99.90;;;;;;5012789;28;20422;-85
2021/03/22 09:40:28;;;;;;;5.20;3.70;;;7.10;99.90;;;;;;5011662;28;20433;-83
2021/03/22 09:43:12;;;;;;;5.37;3.23;;;7.10;99.90;;;;;;5012670;28;20406;-83
2021/03/22 09:45:53;;;;;;;11.80;2.97;;;7.20;99.90;;;;;;5028952;28;20437;-85
2021/03/22 09:48:35;;;;;;;6.40;3.60;;;7.40;99.90;;;;;;5012090;28;20455;-84
2021/03/22 09:51:04;;;;;;;6.40;2.83;;;7.70;99.90;;;;;;5028583;28;20434;-85
2021/03/22 09:53:56;;;;;;;5.87;3.70;;;7.50;99.90;;;;;;5027835;28;20451;-84
2021/03/22 09:56:24;;;;;;;7.80;3.40;;;7.20;99.90;;;;;;5028961;28;20411;-85
2021/03/22 09:58:54;;;;;;;4.27;2.33;;;7.00;99.90;;;;;;5011722;28;20479;-84
2021/03/22 10:01:29;;;;;;;6.43;2.30;;;7.00;99.90;;;;;;5029585;28;20426;-84
2021/03/22 10:04:14;;;;;;;5.20;2.63;;;6.90;99.90;;;;;;5011210;28;20418;-84
2021/03/22 10:06:58;;;;;;;4.43;2.13;;;6.90;99.90;;;;;;5030103;28;20476;-85
2021/03/22 10:09:33;;;;;;;6.13;2.63;;;6.80;99.90;;;;;;5011651;28;20449;-84
2021/03/22 10:12:14;;;;;;;8.83;3.27;;;6.90;99.90;;;;;;5032816;28;20501;-83
2021/03/22 10:14:44;;;;;;;6.47;2.83;;;6.80;99.90;;;;;;5018050;28;20399;-83
2021/03/22 10:17:27;;;;;;;4.27;2.90;;;7.10;99.90;;;;;;5000186;28;20438;-85
2021/03/22 10:20:05;;;;;;;3.50;1.93;;;7.10;99.90;;;;;;4999898;28;20418;-84
2021/03/22 10:22:32;;;;;;;3.07;1.70;;;7.10;99.90;;;;;;5016660;28;20403;-83
2021/03/22 10:25:13;;;;;;;5.10;2.20;;;7.10;99.90;;;;;;5028586;28;20546;-84
2021/03/22 10:27:41;;;;;;;2.47;1.50;;;7.20;99.90;;;;;;5031332;28;20442;-82
2021/03/22 10:30:15;;;;;;;3.73;2.03;;;7.20;99.90;;;;;;5028879;28;20398;-84
2021/03/22 10:32:55;;;;;;;3.63;2.10;;;7.20;99.90;;;;;;5028920;28;20437;-84
2021/03/22 10:35:22;;;;;;;2.20;1.37;;;7.40;99.90;;;;;;4995979;28;20486;-83
2021/03/22 10:37:54;;;;;;;3.20;1.83;;;7.50;99.90;;;;;;5027476;28;20423;-83
2021/03/22 10:40:37;;;;;;;1.90;1.17;;;7.40;99.90;;;;;;5027064;28;20486;-85
2021/03/22 10:43:05;;;;;;;2.40;1.20;;;7.40;99.90;;;;;;5008458;28;20399;-84
2021/03/22 10:45:33;;;;;;;5.50;1.40;;;7.40;99.30;;;;;;5027426;28;20530;-83
2021/03/22 10:48:01;;;;;;;1.40;1.10;;;7.40;97.60;;;;;;5008952;28;20411;-83
2021/03/22 10:50:31;;;;;;;4.17;1.93;;;7.50;97.20;;;;;;5008324;28;20431;-84
2021/03/22 10:53:05;;;;;;;5.43;1.70;;;7.40;96.70;;;;;;4991941;28;20437;-82
2021/03/22 10:55:33;;;;;;;2.00;1.47;;;7.50;97.70;;;;;;5008529;28;20400;-84
2021/03/22 10:58:01;;;;;;;2.00;1.30;;;7.60;96.40;;;;;;5028982;28;20418;-83
2021/03/22 11:00:35;;;;;;;1.70;1.17;;;7.60;94.60;;;;;;4994569;28;20446;-85
2021/03/22 11:03:04;;;;;;;2.63;2.40;;;7.50;94.10;;;;;;5008767;28;20394;-84
2021/03/22 11:05:38;;;;;;;2.17;1.40;;;7.40;94.50;;;;;;5024938;28;20529;-83
2021/03/22 11:08:26;;;;;;;5.53;1.83;;;7.60;95.50;;;;;;5007406;28;20391;-85
2021/03/22 11:11:13;;;;;;;1.73;1.17;;;7.70;96.90;;;;;;5007719;28;20847;-86
2021/03/22 11:13:45;;;;;;;3.23;2.20;;;7.90;97.10;;;;;;5026455;28;20429;-84
2021/03/22 11:16:33;;;;;;;6.67;1.97;;;7.90;97.50;;;;;;5010707;28;20466;-83
2021/03/22 11:19:09;;;;;;;1.50;1.40;;;7.90;98.10;;;;;;5008164;28;20418;-83
2021/03/22 11:21:35;;;;;;;4.57;1.23;;;8.00;98.50;;;;;;5025326;28;20739;-84
2021/03/22 11:24:01;;;;;;;1.80;1.43;;;8.10;98.00;;;;;;5025144;28;20414;-84
2021/03/22 11:26:30;;;;;;;4.03;1.60;;;7.90;96.70;;;;;;4991600;28;20425;-86
2021/03/22 11:29:15;;;;;;;2.20;2.00;;;7.90;97.80;;;;;;5006039;28;20419;-86
2021/03/22 11:31:43;;;;;;;6.00;1.93;;;8.00;97.10;;;;;;5006413;28;20423;-85
2021/03/22 11:34:42;;;;;;;1.57;1.43;;;8.20;96.00;;;;;;5005522;28;20431;-82
2021/03/22 11:37:26;;;;;;;6.87;1.67;;;8.10;94.80;;;;;;5023183;28;20419;-84
2021/03/22 11:40:11;;;;;;;4.60;1.97;;;8.30;94.60;;;;;;5024641;28;20872;-84
2021/03/22 11:42:56;;;;;;;3.37;1.73;;;8.40;94.50;;;;;;5023420;28;20485;-84
2021/03/22 11:45:30;;;;;;;2.83;1.70;;;8.50;93.90;;;;;;5026826;28;20442;-84
2021/03/22 11:47:57;;;;;;;4.33;1.30;;;8.70;93.00;;;;;;4993630;28;20414;-84
2021/03/22 11:50:44;;;;;;;3.03;1.50;;;8.80;91.70;;;;;;5034161;28;20442;-83
2021/03/22 11:53:17;;;;;;;3.17;1.83;;;8.60;90.10;;;;;;5035755;28;20396;-84
2021/03/22 11:55:49;;;;;;;5.03;1.50;;;8.50;91.10;;;;;;4997976;28;20411;-85
2021/03/22 11:58:29;;;;;;;1.90;1.07;;;8.60;90.80;;;;;;5005746;28;20446;-83
2021/03/22 12:01:18;;;;;;;4.43;1.63;;;8.70;90.90;;;;;;5024114;28;20426;-84
2021/03/22 12:04:07;;;;;;;3.67;1.27;;;8.70;91.10;;;;;;5023341;28;20406;-85
2021/03/22 12:06:47;;;;;;;1.33;1.23;;;8.70;90.50;;;;;;5006090;28;20419;-85
2021/03/22 12:09:13;;;;;;;1.53;1.10;;;8.80;90.40;;;;;;5004902;28;20383;-84
2021/03/22 12:11:39;;;;;;;2.13;1.90;;;8.90;88.70;;;;;;5005751;28;20442;-85
2021/03/22 12:14:05;;;;;;;3.07;1.83;;;8.80;89.00;;;;;;5023390;28;20164;-84
2021/03/22 12:16:36;;;;;;;4.80;1.90;;;8.90;89.70;;;;;;5021894;28;20427;-84
2021/03/22 12:19:28;;;;;;;3.80;2.10;;;8.60;89.90;;;;;;5023573;28;20430;-85
2021/03/22 12:21:54;;;;;;;13.80;9.43;;;8.60;90.70;;;;;;5005508;28;20467;-83
2021/03/22 12:24:20;;;;;;;9.83;3.50;;;8.90;91.90;;;;;;5007739;28;20454;-86
2021/03/22 12:26:46;;;;;;;3.80;2.00;;;9.20;92.10;;;;;;5006394;28;20450;-84
2021/03/22 12:29:12;;;;;;;2.20;1.10;;;9.20;90.80;;;;;;5005571;28;20497;-85
2021/03/22 12:31:44;;;;;;;3.73;1.50;;;9.10;91.10;;;;;;5005778;28;20434;-84
2021/03/22 12:34:19;;;;;;;4.67;1.80;;;9.10;92.30;;;;;;4992170;28;20892;-84
2021/03/22 12:36:47;;;;;;;6.53;2.20;;;9.10;92.90;;;;;;5008731;28;20490;-85
2021/03/22 12:39:26;;;;;;;3.23;2.00;;;9.20;92.80;;;;;;5007401;28;20423;-85
2021/03/22 12:42:07;;;;;;;2.73;2.23;;;9.00;92.30;;;;;;5008062;28;20477;-84
2021/03/22 12:44:33;;;;;;;3.10;2.00;;;9.10;93.50;;;;;;5007769;28;20478;-86
2021/03/22 12:47:06;;;;;;;5.73;2.57;;;9.20;93.50;;;;;;4990459;28;20426;-85
2021/03/22 12:49:32;;;;;;;2.17;1.97;;;9.30;93.50;;;;;;5024258;28;20922;-85
2021/03/22 12:51:58;;;;;;;5.73;2.13;;;9.50;93.40;;;;;;5005681;28;20440;-84
2021/03/22 12:54:24;;;;;;;2.10;1.60;;;9.50;93.20;;;;;;4990644;28;20176;-83
2021/03/22 12:56:51;;;;;;;5.10;1.70;;;9.50;93.20;;;;;;5007992;28;20778;-85
2021/03/22 12:59:37;;;;;;;3.03;1.70;;;9.50;90.80;;;;;;5005236;28;20424;-86
2021/03/22 13:02:15;;;;;;;2.80;1.60;;;9.30;87.00;;;;;;4990265;28;20442;-86
2021/03/22 13:04:42;;;;;;;1.43;1.10;;;9.30;86.50;;;;;;4990200;28;20533;-84
2021/03/22 13:07:08;;;;;;;5.33;2.00;;;9.40;85.60;;;;;;4990394;28;20414;-85
2021/03/22 13:09:36;;;;;;;6.50;2.37;;;9.40;85.10;;;;;;5025144;28;20416;-85
2021/03/22 13:12:03;;;;;;;4.07;3.00;;;9.80;87.50;;;;;;5007703;28;20435;-86
2021/03/22 13:14:29;;;;;;;2.20;1.47;;;10.00;87.60;;;;;;5008891;28;20416;-87
2021/03/22 13:16:55;;;;;;;2.37;1.87;;;10.10;87.70;;;;;;5009178;28;20926;-86
2021/03/22 13:19:21;;;;;;;3.77;1.57;;;10.30;84.40;;;;;;5025657;28;20442;-85
2021/03/22 13:21:48;;;;;;;2.60;1.80;;;10.40;80.30;;;;;;5024423;28;20460;-85
2021/03/22 13:24:22;;;;;;;2.60;1.47;;;10.50;81.10;;;;;;5025645;28;20446;-89
2021/03/22 13:26:51;;;;;;;2.07;1.00;;;10.40;78.70;;;;;;5007368;28;20945;-86
2021/03/22 13:29:17;;;;;;;8.20;2.53;;;9.90;80.00;;;;;;4993142;28;20418;-86
2021/03/22 13:31:43;;;;;;;1.90;1.20;;;10.20;82.10;;;;;;5010753;28;20449;-86
2021/03/22 13:34:12;;;;;;;2.60;1.80;;;10.10;80.90;;;;;;5013439;28;20425;-87
2021/03/22 13:36:38;;;;;;;3.90;2.20;;;10.30;81.70;;;;;;5014530;28;20430;-85
2021/03/22 13:39:05;;;;;;;2.13;1.47;;;10.50;81.60;;;;;;5014249;28;20425;-85
2021/03/22 13:41:37;;;;;;;5.13;1.50;;;10.30;81.60;;;;;;5027127;28;20430;-83
2021/03/22 13:44:04;;;;;;;1.63;1.17;;;10.30;80.70;;;;;;4991754;28;20434;-86
2021/03/22 13:46:32;;;;;;;2.07;1.47;;;10.10;79.50;;;;;;4993591;28;20410;-85
2021/03/22 13:48:59;;;;;;;6.47;1.70;;;10.00;80.40;;;;;;5010534;28;20414;-86
2021/03/22 13:51:30;;;;;;;1.27;1.17;;;10.00;79.90;;;;;;5010832;28;20446;-86
2021/03/22 13:53:59;;;;;;;3.60;1.83;;;10.20;80.50;;;;;;5012040;28;20526;-87
2021/03/22 13:56:25;;;;;;;4.00;1.87;;;10.20;81.40;;;;;;5030523;28;20486;-85
2021/03/22 13:58:51;;;;;;;3.53;1.80;;;10.20;82.30;;;;;;5009423;28;20403;-87
2021/03/22 14:01:17;;;;;;;2.67;1.60;;;10.10;83.20;;;;;;5026471;28;20549;-86
2021/03/22 14:03:44;;;;;;;5.03;1.60;;;10.20;83.70;;;;;;4993133;28;20414;-85
2021/03/22 14:06:10;;;;;;;2.00;1.60;;;10.30;83.10;;;;;;5028427;28;20521;-86
2021/03/22 14:08:36;;;;;;;2.80;1.83;;;10.30;82.40;;;;;;5026734;28;20410;-83
2021/03/22 14:11:03;;;;;;;4.20;1.63;;;10.00;82.30;;;;;;5024545;28;20438;-84
2021/03/22 14:13:29;;;;;;;2.00;1.70;;;10.00;83.40;;;;;;5009659;28;20430;-84
2021/03/22 14:15:56;;;;;;;5.10;2.07;;;10.20;83.00;;;;;;5011716;28;20732;-85
2021/03/22 14:18:24;;;;;;;3.60;1.47;;;10.30;82.60;;;;;;5011594;28;20419;-84
2021/03/22 14:21:10;;;;;;;2.03;1.73;;;10.50;82.10;;;;;;5028390;28;20829;-86
2021/03/22 14:23:39;;;;;;;5.00;1.60;;;10.50;81.90;;;;;;5010767;28;20422;-85
2021/03/22 14:26:05;;;;;;;3.03;1.20;;;10.60;81.60;;;;;;5011352;28;20458;-85
2021/03/22 14:28:31;;;;;;;2.80;1.30;;;10.10;82.40;;;;;;5007386;28;20895;-86
2021/03/22 14:30:57;;;;;;;2.73;1.60;;;9.90;83.90;;;;;;5007455;28;20431;-85
2021/03/22 14:33:26;;;;;;;2.00;1.60;;;9.80;84.60;;;;;;5025139;28;20776;-85